Terminal Aerodrome Forecast
Issued by NWS Albany, NY

Home | Current Version | Previous Version | Text Only | Print | Product List | Glossary On
Versions: 1 2 3 4 5 6 7 8 9 10 11 12 13 14 15 16 17 18 19 20 21 22 23
411
FTUS41 KALY 111138
TAFALB
TAF
KALB 111138Z 1112/1212 VRB05KT P6SM BKN045
     FM112000 16004KT P6SM VCSH BKN045
     FM120000 16007KT 4SM -SN OVC025
     FM120200 16010KT 2SM -SN OVC015
     FM120900 16009KT 1SM -SN OVC003=

USA.gov is the U.S. government's official web portal to all federal, state and local government web resources and services.